Terminal Aerodrome Forecast
Issued by NWS Sterling, VA

Current Version | Previous Version | Text Only | Print | Product List | Glossary Off
Versions: 1 2 3 4 5 6 7 8 9 10 11 12 13 14 15 16 17 18 19 20 21 22 23

000
FTUS41 KLWX 140300 AAA
TAFDCA
TAF AMD
KDCA 140323Z 1403/1424 20010KT 6SM -SHRA VCTS SCT050CB BKN080
     FM140600 22007KT P6SM BKN060
     FM140900 24006KT P6SM BKN120
     FM141300 21005KT P6SM BKN060
     FM141800 23009KT 3SM SHRA VCTS BKN040CB=

USA.gov is the U.S. government's official web portal to all federal, state and local government web resources and services.